createdAt,value
2023-03-05T00:01:10.812Z,7.80
2023-03-05T00:03:37.343Z,7.13
2023-03-05T00:06:04.067Z,5.35
2023-03-05T00:08:30.764Z,6.05
2023-03-05T00:10:58.059Z,6.82
2023-03-05T00:13:24.865Z,7.07
2023-03-05T00:15:52.775Z,7.40
2023-03-05T00:18:19.711Z,7.50
2023-03-05T00:20:46.545Z,7.57
2023-03-05T00:23:13.098Z,8.73
2023-03-05T00:25:40.201Z,6.47
2023-03-05T00:28:06.975Z,8.18
2023-03-05T00:30:34.025Z,7.10
2023-03-05T00:33:00.915Z,6.15
2023-03-05T00:35:27.584Z,5.90
2023-03-05T00:37:54.151Z,8.35
2023-03-05T00:40:20.789Z,6.38
2023-03-05T00:42:47.541Z,6.85
2023-03-05T00:45:13.942Z,6.47
2023-03-05T00:47:40.417Z,7.68
2023-03-05T00:50:07.269Z,6.80
2023-03-05T00:52:33.969Z,5.35
2023-03-05T00:55:00.415Z,7.38
2023-03-05T00:57:27.325Z,4.55
2023-03-05T00:59:53.796Z,5.90
2023-03-05T01:02:20.742Z,8.13
2023-03-05T01:04:47.520Z,7.75
2023-03-05T01:07:14.976Z,5.18
2023-03-05T01:09:41.562Z,8.10
2023-03-05T01:12:08.228Z,6.45
2023-03-05T01:14:35.876Z,4.95
2023-03-05T01:17:02.649Z,7.15
2023-03-05T01:19:29.127Z,6.03
2023-03-05T01:21:55.543Z,5.90
2023-03-05T01:24:22.500Z,8.25
2023-03-05T01:26:49.388Z,7.85
2023-03-05T01:29:15.868Z,8.02
2023-03-05T01:31:42.357Z,11.13
2023-03-05T01:34:08.797Z,8.27
2023-03-05T01:36:35.598Z,6.68
2023-03-05T01:39:02.766Z,7.10
2023-03-05T01:41:30.457Z,6.15
2023-03-05T01:43:58.070Z,7.30
2023-03-05T01:46:30.625Z,8.25
2023-03-05T01:49:02.960Z,7.53
2023-03-05T01:51:31.403Z,6.78
2023-03-05T01:53:59.018Z,6.82
2023-03-05T01:56:26.260Z,6.65
2023-03-05T01:58:53.506Z,7.88
2023-03-05T02:01:20.004Z,6.72
2023-03-05T02:03:47.348Z,8.27
2023-03-05T02:06:15.461Z,7.85
2023-03-05T02:08:42.028Z,7.13
2023-03-05T02:11:08.838Z,11.27
2023-03-05T02:13:38.261Z,6.18
2023-03-05T02:16:04.922Z,6.75
2023-03-05T02:18:31.442Z,5.88
2023-03-05T02:20:57.988Z,7.53
2023-03-05T02:23:26.219Z,6.95
2023-03-05T02:25:53.451Z,7.95
2023-03-05T02:28:23.156Z,8.07
2023-03-05T02:30:49.751Z,8.27
2023-03-05T02:33:17.189Z,7.10
2023-03-05T02:35:43.784Z,8.55
2023-03-05T02:38:11.412Z,7.13
2023-03-05T02:40:38.035Z,7.78
2023-03-05T02:43:05.287Z,7.72
2023-03-05T02:45:31.989Z,6.07
2023-03-05T02:47:58.521Z,7.53
2023-03-05T02:50:26.448Z,7.47
2023-03-05T02:52:53.264Z,9.45
2023-03-05T02:55:20.622Z,6.97
2023-03-05T02:57:47.181Z,7.40
2023-03-05T03:00:13.940Z,7.95
2023-03-05T03:02:40.472Z,6.97
2023-03-05T03:05:07.149Z,7.97
2023-03-05T03:07:35.968Z,8.35
2023-03-05T03:10:03.015Z,7.32
2023-03-05T03:12:29.446Z,6.85
2023-03-05T03:14:55.980Z,7.57
2023-03-05T03:17:22.447Z,7.38
2023-03-05T03:19:48.943Z,8.77
2023-03-05T03:22:16.085Z,8.95
2023-03-05T03:24:43.377Z,7.93
2023-03-05T03:27:10.002Z,8.48
2023-03-05T03:29:36.999Z,8.43
2023-03-05T03:32:03.604Z,8.70
2023-03-05T03:34:30.086Z,6.45
2023-03-05T03:36:56.643Z,8.35
2023-03-05T03:39:23.817Z,7.00
2023-03-05T03:41:51.757Z,9.82
2023-03-05T03:44:18.916Z,10.70
2023-03-05T03:46:46.374Z,8.82
2023-03-05T03:49:17.127Z,7.55
2023-03-05T03:51:43.602Z,8.18
2023-03-05T03:54:10.010Z,7.47
2023-03-05T03:56:36.610Z,7.10
2023-03-05T03:59:03.554Z,7.93
2023-03-05T04:01:30.077Z,6.82
2023-03-05T04:03:56.498Z,7.22
2023-03-05T04:06:22.907Z,9.25
2023-03-05T04:08:49.637Z,7.03
2023-03-05T04:11:16.106Z,7.18
2023-03-05T04:13:42.602Z,9.52
2023-03-05T04:16:09.108Z,7.82
2023-03-05T04:18:35.562Z,6.80
2023-03-05T04:21:02.114Z,8.20
2023-03-05T04:23:28.910Z,7.55
2023-03-05T04:25:55.338Z,8.48
2023-03-05T04:28:21.800Z,8.57
2023-03-05T04:30:48.286Z,8.05
2023-03-05T04:33:15.366Z,7.45
2023-03-05T04:35:42.099Z,8.43
2023-03-05T04:38:08.778Z,7.32
2023-03-05T04:40:35.466Z,8.18
2023-03-05T04:43:01.867Z,9.10
2023-03-05T04:45:28.344Z,5.75
2023-03-05T04:47:54.883Z,7.35
2023-03-05T04:50:21.899Z,8.13
2023-03-05T04:52:48.643Z,9.40
2023-03-05T04:55:15.937Z,8.50
2023-03-05T04:57:42.689Z,7.40
2023-03-05T05:00:14.230Z,7.47
2023-03-05T05:02:44.768Z,6.97
2023-03-05T05:05:19.441Z,8.93
2023-03-05T05:07:46.059Z,9.00
2023-03-05T05:10:12.831Z,7.22
2023-03-05T05:12:39.674Z,7.85
2023-03-05T05:15:07.219Z,6.95
2023-03-05T05:17:34.204Z,7.93
2023-03-05T05:20:01.283Z,12.00
2023-03-05T05:22:28.434Z,7.13
2023-03-05T05:24:55.448Z,7.55
2023-03-05T05:27:22.034Z,8.60
2023-03-05T05:29:52.902Z,7.60
2023-03-05T05:32:20.675Z,9.43
2023-03-05T05:34:47.204Z,9.25
2023-03-05T05:37:13.679Z,7.75
2023-03-05T05:39:40.258Z,9.05
2023-03-05T05:42:06.818Z,8.85
2023-03-05T05:44:34.913Z,6.60
2023-03-05T05:47:01.783Z,9.27
2023-03-05T05:49:28.344Z,9.20
2023-03-05T05:51:54.808Z,9.10
2023-03-05T05:54:21.350Z,8.32
2023-03-05T05:56:47.749Z,11.15
2023-03-05T05:59:14.282Z,9.88
2023-03-05T06:01:40.740Z,11.52
2023-03-05T06:04:07.259Z,12.45
2023-03-05T06:06:35.019Z,9.70
2023-03-05T06:09:01.599Z,8.82
2023-03-05T06:11:28.387Z,9.52
2023-03-05T06:13:54.928Z,10.27
2023-03-05T06:16:24.036Z,8.23
2023-03-05T06:18:51.398Z,8.52
2023-03-05T06:21:19.024Z,8.48
2023-03-05T06:23:46.124Z,6.63
2023-03-05T06:26:14.261Z,8.70
2023-03-05T06:28:41.094Z,6.68
2023-03-05T06:31:08.900Z,6.55
2023-03-05T06:33:35.394Z,7.88
2023-03-05T06:36:09.495Z,6.32
2023-03-05T06:38:36.651Z,7.78
2023-03-05T06:41:09.299Z,8.00
2023-03-05T06:43:37.305Z,6.57
2023-03-05T06:46:23.682Z,8.85
2023-03-05T06:48:51.058Z,7.72
2023-03-05T06:51:19.048Z,7.10
2023-03-05T06:53:49.368Z,7.80
2023-03-05T06:56:16.871Z,7.03
2023-03-05T06:58:45.805Z,9.45
2023-03-05T07:01:12.851Z,7.25
2023-03-05T07:03:39.577Z,6.88
2023-03-05T07:06:07.185Z,8.05
2023-03-05T07:08:33.760Z,6.75
2023-03-05T07:11:00.304Z,8.02
2023-03-05T07:13:27.042Z,6.45
2023-03-05T07:15:53.741Z,6.43
2023-03-05T07:18:20.340Z,7.38
2023-03-05T07:20:46.883Z,7.72
2023-03-05T07:23:13.608Z,5.47
2023-03-05T07:25:40.090Z,6.07
2023-03-05T07:28:07.134Z,8.70
2023-03-05T07:30:34.386Z,7.40
2023-03-05T07:33:02.153Z,5.50
2023-03-05T07:35:28.711Z,7.50
2023-03-05T07:37:55.950Z,6.95
2023-03-05T07:40:22.526Z,5.57
2023-03-05T07:42:49.105Z,7.25
2023-03-05T07:45:23.983Z,5.57
2023-03-05T07:47:52.507Z,7.50
2023-03-05T07:50:19.045Z,8.20
2023-03-05T07:52:45.588Z,5.65
2023-03-05T07:55:12.086Z,5.88
2023-03-05T07:57:39.029Z,6.80
2023-03-05T08:00:06.391Z,6.35
2023-03-05T08:02:38.171Z,5.10
2023-03-05T08:05:04.839Z,7.53
2023-03-05T08:07:31.287Z,8.85
2023-03-05T08:09:57.732Z,5.95
2023-03-05T08:12:24.577Z,7.30
2023-03-05T08:14:51.548Z,7.38
2023-03-05T08:17:18.050Z,6.30
2023-03-05T08:19:44.470Z,7.93
2023-03-05T08:22:11.027Z,7.93
2023-03-05T08:24:37.675Z,6.57
2023-03-05T08:27:04.142Z,6.15
2023-03-05T08:29:30.728Z,5.47
2023-03-05T08:31:57.126Z,7.82
2023-03-05T08:34:23.695Z,7.97
2023-03-05T08:36:50.220Z,6.07
2023-03-05T08:39:16.781Z,6.28
2023-03-05T08:41:43.244Z,8.20
2023-03-05T08:44:09.771Z,7.20
2023-03-05T08:46:38.538Z,5.30
2023-03-05T08:49:05.021Z,15.25
2023-03-05T08:51:31.500Z,6.10
2023-03-05T08:53:58.649Z,7.53
2023-03-05T08:56:27.538Z,6.15
2023-03-05T08:58:54.177Z,7.65
2023-03-05T09:01:20.640Z,8.05
2023-03-05T09:03:47.060Z,8.48
2023-03-05T09:06:13.539Z,7.18
2023-03-05T09:08:40.087Z,6.38
2023-03-05T09:11:07.456Z,8.93
2023-03-05T09:13:34.199Z,9.80
2023-03-05T09:16:02.496Z,10.73
2023-03-05T09:18:29.337Z,8.10
2023-03-05T09:20:55.870Z,7.45
2023-03-05T09:23:22.820Z,7.53
2023-03-05T09:25:49.666Z,9.73
2023-03-05T09:28:16.295Z,9.52
2023-03-05T09:30:42.833Z,9.40
2023-03-05T09:33:09.330Z,7.97
2023-03-05T09:35:36.286Z,9.15
2023-03-05T09:38:03.584Z,9.38
2023-03-05T09:40:50.289Z,7.43
2023-03-05T09:43:24.381Z,7.55
2023-03-05T09:46:06.309Z,8.18
2023-03-05T09:48:38.642Z,8.02
2023-03-05T09:51:05.594Z,8.38
2023-03-05T09:53:37.097Z,9.55
2023-03-05T09:56:05.190Z,10.35
2023-03-05T09:58:34.979Z,9.00
2023-03-05T10:01:03.977Z,8.52
2023-03-05T10:03:36.924Z,6.60
2023-03-05T10:06:13.073Z,10.05
2023-03-05T10:08:48.858Z,8.15
2023-03-05T10:11:24.286Z,9.98
2023-03-05T10:13:52.229Z,7.38
2023-03-05T10:16:18.640Z,8.55
2023-03-05T10:19:00.202Z,7.68
2023-03-05T10:21:26.673Z,5.38
2023-03-05T10:23:55.983Z,10.27
2023-03-05T10:26:37.472Z,7.63
2023-03-05T10:29:15.859Z,10.00
2023-03-05T10:31:48.480Z,7.78
2023-03-05T10:34:32.495Z,8.50
2023-03-05T10:37:22.978Z,5.75
2023-03-05T10:40:01.395Z,6.68
2023-03-05T10:42:30.114Z,6.60
2023-03-05T10:44:58.576Z,9.20
2023-03-05T10:47:43.885Z,8.65
2023-03-05T10:50:21.838Z,8.57
2023-03-05T10:52:51.756Z,6.15
2023-03-05T10:55:20.304Z,6.80
2023-03-05T10:57:47.379Z,7.22
2023-03-05T11:00:21.967Z,7.43
2023-03-05T11:02:59.608Z,8.43
2023-03-05T11:05:38.613Z,5.88
2023-03-05T11:08:23.875Z,7.95
2023-03-05T11:11:03.975Z,7.50
2023-03-05T11:13:30.846Z,7.03
2023-03-05T11:16:01.074Z,7.07
2023-03-05T11:18:31.437Z,6.50
2023-03-05T11:21:07.250Z,8.45
2023-03-05T11:23:33.774Z,8.40
2023-03-05T11:26:12.575Z,10.95
2023-03-05T11:28:40.361Z,10.15
2023-03-05T11:31:20.945Z,12.98
2023-03-05T11:33:59.560Z,8.90
2023-03-05T11:36:30.838Z,10.55
2023-03-05T11:39:09.215Z,10.32
2023-03-05T11:41:41.667Z,9.18
2023-03-05T11:44:31.230Z,9.73
2023-03-05T11:47:11.348Z,10.35
2023-03-05T11:49:41.803Z,13.45
2023-03-05T11:52:12.808Z,15.57
2023-03-05T11:54:42.343Z,10.05
2023-03-05T11:57:10.666Z,9.85
2023-03-05T11:59:40.085Z,10.27
2023-03-05T12:02:15.172Z,9.35
2023-03-05T12:04:41.803Z,11.13
2023-03-05T12:07:11.166Z,10.43
2023-03-05T12:09:43.389Z,11.75
2023-03-05T12:12:30.925Z,12.07
2023-03-05T12:15:17.438Z,9.50
2023-03-05T12:17:43.877Z,12.18
2023-03-05T12:20:10.287Z,12.73
2023-03-05T12:22:38.485Z,14.35
2023-03-05T12:25:17.425Z,9.15
2023-03-05T12:27:43.829Z,9.93
2023-03-05T12:30:29.488Z,10.13
2023-03-05T12:32:56.325Z,9.75
2023-03-05T12:35:22.839Z,7.60
2023-03-05T12:37:49.331Z,8.75
2023-03-05T12:40:15.754Z,7.70
2023-03-05T12:42:42.272Z,7.85
2023-03-05T12:45:16.013Z,6.38
2023-03-05T12:47:43.231Z,10.15
2023-03-05T12:50:28.186Z,9.75
2023-03-05T12:53:04.210Z,7.15
2023-03-05T12:55:34.005Z,7.03
2023-03-05T12:58:09.172Z,7.25
2023-03-05T13:00:35.692Z,9.57
2023-03-05T13:03:04.076Z,9.57
2023-03-05T13:05:35.520Z,10.43
2023-03-05T13:08:11.029Z,11.75
2023-03-05T13:10:37.686Z,7.93
2023-03-05T13:13:04.222Z,9.18
2023-03-05T13:15:31.412Z,10.57
2023-03-05T13:18:07.535Z,8.90
2023-03-05T13:20:34.234Z,10.07
2023-03-05T13:23:19.851Z,8.68
2023-03-05T13:25:57.047Z,11.48
2023-03-05T13:28:23.666Z,9.73
2023-03-05T13:30:51.913Z,12.07
2023-03-05T13:33:20.267Z,12.05
2023-03-05T13:35:47.332Z,12.77
2023-03-05T13:38:32.845Z,12.45
2023-03-05T13:41:05.174Z,12.98
2023-03-05T13:43:31.894Z,11.98
2023-03-05T13:45:59.442Z,14.52
2023-03-05T13:48:27.722Z,14.57
2023-03-05T13:50:55.860Z,15.45
2023-03-05T13:53:25.402Z,16.60
2023-03-05T13:55:53.880Z,17.00
2023-03-05T13:58:39.449Z,17.38
2023-03-05T14:01:12.863Z,14.95
2023-03-05T14:03:39.554Z,17.70
2023-03-05T14:06:10.385Z,14.18
2023-03-05T14:08:37.404Z,13.15
2023-03-05T14:11:15.226Z,15.75
2023-03-05T14:13:42.171Z,13.90
2023-03-05T14:16:08.605Z,13.18
2023-03-05T14:18:35.531Z,11.73
2023-03-05T14:21:04.020Z,12.27
2023-03-05T14:23:38.218Z,11.40
2023-03-05T14:26:19.307Z,13.57
2023-03-05T14:28:50.955Z,13.63
2023-03-05T14:31:18.074Z,11.15
2023-03-05T14:33:45.078Z,11.00
2023-03-05T14:36:11.739Z,14.32
2023-03-05T14:38:42.863Z,11.23
2023-03-05T14:41:31.079Z,12.57
2023-03-05T14:43:57.583Z,11.07
2023-03-05T14:46:24.543Z,10.20
2023-03-05T14:48:51.184Z,10.70
2023-03-05T14:51:17.885Z,10.73
2023-03-05T14:53:46.973Z,10.45
2023-03-05T14:56:18.895Z,12.27
2023-03-05T14:58:45.426Z,12.20
2023-03-05T15:01:12.274Z,11.65
2023-03-05T15:03:40.938Z,10.57
2023-03-05T15:06:12.805Z,9.77
2023-03-05T15:08:39.320Z,10.13
2023-03-05T15:11:06.824Z,12.82
2023-03-05T15:13:34.757Z,11.50
2023-03-05T15:16:01.356Z,11.27
2023-03-05T15:18:28.083Z,12.73
2023-03-05T15:20:57.036Z,12.55
2023-03-05T15:23:23.876Z,12.45
2023-03-05T15:25:50.437Z,14.90
2023-03-05T15:28:16.992Z,20.58
2023-03-05T15:30:44.952Z,13.23
2023-03-05T15:33:12.852Z,14.40
2023-03-05T15:35:39.384Z,11.85
2023-03-05T15:38:05.855Z,11.98
2023-03-05T15:40:32.358Z,10.88
2023-03-05T15:42:59.370Z,11.43
2023-03-05T15:45:26.069Z,11.50
2023-03-05T15:47:53.066Z,13.00
2023-03-05T15:50:20.417Z,12.90
2023-03-05T15:52:47.304Z,11.63
2023-03-05T15:55:13.739Z,14.90
2023-03-05T15:57:43.647Z,17.05
2023-03-05T16:00:10.581Z,12.30
2023-03-05T16:02:37.490Z,13.52
2023-03-05T16:05:04.342Z,15.88
2023-03-05T16:07:32.937Z,13.98
2023-03-05T16:09:59.634Z,17.67
2023-03-05T16:12:27.487Z,14.13
2023-03-05T16:14:54.194Z,14.25
2023-03-05T16:17:21.909Z,18.02
2023-03-05T16:19:52.424Z,14.90
2023-03-05T16:22:18.959Z,13.25
2023-03-05T16:24:45.444Z,13.15
2023-03-05T16:27:12.056Z,12.15
2023-03-05T16:29:38.482Z,15.13
2023-03-05T16:32:05.792Z,13.60
2023-03-05T16:34:34.394Z,14.68
2023-03-05T16:37:04.294Z,14.75
2023-03-05T16:39:30.848Z,15.20
2023-03-05T16:41:57.878Z,15.77
2023-03-05T16:44:24.597Z,16.13
2023-03-05T16:46:53.755Z,18.45
2023-03-05T16:49:20.642Z,19.95
2023-03-05T16:51:47.127Z,21.27
2023-03-05T16:54:13.732Z,21.73
2023-03-05T16:56:40.140Z,22.65
2023-03-05T16:59:06.780Z,25.75
2023-03-05T17:01:33.316Z,25.88
2023-03-05T17:04:00.335Z,24.27
2023-03-05T17:06:28.312Z,20.83
2023-03-05T17:08:55.077Z,22.33
2023-03-05T17:11:21.936Z,20.20
2023-03-05T17:13:49.113Z,23.80
2023-03-05T17:16:16.302Z,22.00
2023-03-05T17:18:42.866Z,22.92
2023-03-05T17:21:09.433Z,22.92
2023-03-05T17:23:36.799Z,26.92
2023-03-05T17:26:13.577Z,23.85
2023-03-05T17:28:40.076Z,26.10
2023-03-05T17:31:06.588Z,27.40
2023-03-05T17:33:33.861Z,26.77
2023-03-05T17:36:00.803Z,26.67
2023-03-05T17:38:27.436Z,25.17
2023-03-05T17:40:53.949Z,36.25
2023-03-05T17:43:20.486Z,24.45
2023-03-05T17:45:47.420Z,30.08
2023-03-05T17:48:14.359Z,27.30
2023-03-05T17:50:40.880Z,31.95
2023-03-05T17:53:07.415Z,25.45
2023-03-05T17:55:33.949Z,23.95
2023-03-05T17:58:00.447Z,26.83
2023-03-05T18:00:28.242Z,25.60
2023-03-05T18:02:54.902Z,26.27
2023-03-05T18:05:22.675Z,27.30
2023-03-05T18:07:49.622Z,28.20
2023-03-05T18:10:23.106Z,28.90
2023-03-05T18:12:49.692Z,27.77
2023-03-05T18:15:17.371Z,25.60
2023-03-05T18:17:44.140Z,25.40
2023-03-05T18:20:31.009Z,27.65
2023-03-05T18:22:58.337Z,22.05
2023-03-05T18:25:30.707Z,23.67
2023-03-05T18:28:00.667Z,23.77
2023-03-05T18:30:27.738Z,21.77
2023-03-05T18:32:54.510Z,25.63
2023-03-05T18:35:21.294Z,23.00
2023-03-05T18:37:47.922Z,23.38
2023-03-05T18:40:18.064Z,25.23
2023-03-05T18:42:45.798Z,21.83
2023-03-05T18:45:16.203Z,22.25
2023-03-05T18:47:42.794Z,21.85
2023-03-05T18:50:10.910Z,22.20
2023-03-05T18:52:37.506Z,20.50
2023-03-05T18:55:04.071Z,25.20
2023-03-05T18:57:30.564Z,19.35
2023-03-05T18:59:56.971Z,20.88
2023-03-05T19:02:23.462Z,24.48
2023-03-05T19:04:50.060Z,21.33
2023-03-05T19:07:16.572Z,21.30
2023-03-05T19:09:59.418Z,22.02
2023-03-05T19:12:30.942Z,20.88
2023-03-05T19:14:58.373Z,21.83
2023-03-05T19:17:24.870Z,20.70
2023-03-05T19:19:52.209Z,23.08
2023-03-05T19:22:18.889Z,23.17
2023-03-05T19:24:45.344Z,21.75
2023-03-05T19:27:13.405Z,23.85
2023-03-05T19:29:41.222Z,23.75
2023-03-05T19:32:09.808Z,23.33
2023-03-05T19:34:36.727Z,23.25
2023-03-05T19:37:04.176Z,26.45
2023-03-05T19:39:31.302Z,20.50
2023-03-05T19:41:57.805Z,23.02
2023-03-05T19:44:24.379Z,21.52
2023-03-05T19:46:50.907Z,20.58
2023-03-05T19:49:17.647Z,21.73
2023-03-05T19:51:45.009Z,22.42
2023-03-05T19:54:14.942Z,22.75
2023-03-05T19:56:41.932Z,24.85
2023-03-05T19:59:08.987Z,26.90
2023-03-05T20:01:35.500Z,22.98
2023-03-05T20:04:02.673Z,25.02
2023-03-05T20:06:29.887Z,23.25
2023-03-05T20:08:56.916Z,23.70
2023-03-05T20:11:23.889Z,22.60
2023-03-05T20:13:50.678Z,25.10
2023-03-05T20:16:18.325Z,22.95
2023-03-05T20:18:45.272Z,23.13
2023-03-05T20:21:12.241Z,22.75
2023-03-05T20:23:39.424Z,21.92
2023-03-05T20:26:06.745Z,23.98
2023-03-05T20:28:33.526Z,25.88
2023-03-05T20:31:00.910Z,23.30
2023-03-05T20:33:28.056Z,23.13
2023-03-05T20:35:56.430Z,23.42
2023-03-05T20:38:25.304Z,21.58
2023-03-05T20:40:53.011Z,20.50
2023-03-05T20:43:20.169Z,21.30
2023-03-05T20:45:46.908Z,22.27
2023-03-05T20:48:13.599Z,19.73
2023-03-05T20:50:41.114Z,20.20
2023-03-05T20:53:08.454Z,36.33
2023-03-05T20:55:35.520Z,19.17
2023-03-05T20:58:01.945Z,20.42
2023-03-05T21:00:28.464Z,17.98
2023-03-05T21:02:56.271Z,20.60
2023-03-05T21:05:24.141Z,22.30
2023-03-05T21:07:51.412Z,22.38
2023-03-05T21:10:18.646Z,22.45
2023-03-05T21:12:46.444Z,25.15
2023-03-05T21:15:13.623Z,23.58
2023-03-05T21:17:41.700Z,22.70
2023-03-05T21:20:09.664Z,23.10
2023-03-05T21:22:36.079Z,22.65
2023-03-05T21:25:16.161Z,22.13
2023-03-05T21:27:43.004Z,22.80
2023-03-05T21:30:10.616Z,22.42
2023-03-05T21:32:37.098Z,23.20
2023-03-05T21:35:03.685Z,22.95
2023-03-05T21:37:30.134Z,22.83
2023-03-05T21:39:56.628Z,23.10
2023-03-05T21:42:23.093Z,22.75
2023-03-05T21:44:49.842Z,24.48
2023-03-05T21:47:16.272Z,23.75
2023-03-05T21:49:42.680Z,24.80
2023-03-05T21:52:11.893Z,22.55
2023-03-05T21:54:39.013Z,24.80
2023-03-05T21:57:06.325Z,25.42
2023-03-05T21:59:33.011Z,28.85
2023-03-05T22:01:59.841Z,30.98
2023-03-05T22:04:26.434Z,33.38
2023-03-05T22:06:52.960Z,34.15
2023-03-05T22:09:19.457Z,34.28
2023-03-05T22:11:45.947Z,33.88
2023-03-05T22:14:12.418Z,35.47
2023-03-05T22:16:38.877Z,34.35
2023-03-05T22:19:05.597Z,36.63
2023-03-05T22:21:32.065Z,31.83
2023-03-05T22:23:58.906Z,30.77
2023-03-05T22:26:26.201Z,36.13
2023-03-05T22:28:52.986Z,31.63
2023-03-05T22:31:23.129Z,32.15
2023-03-05T22:33:50.044Z,30.88
2023-03-05T22:36:16.763Z,32.85
2023-03-05T22:38:43.228Z,30.90
2023-03-05T22:41:11.077Z,34.42
2023-03-05T22:43:37.516Z,29.75
2023-03-05T22:46:14.541Z,32.03
2023-03-05T22:48:41.209Z,31.90
2023-03-05T22:51:08.001Z,29.08
2023-03-05T22:53:34.544Z,30.80
2023-03-05T22:56:05.447Z,28.50
2023-03-05T22:58:31.905Z,29.17
2023-03-05T23:00:58.403Z,30.05
2023-03-05T23:03:24.888Z,28.92
2023-03-05T23:05:51.357Z,30.98
2023-03-05T23:08:17.764Z,32.58
2023-03-05T23:10:44.154Z,33.10
2023-03-05T23:13:10.869Z,29.73
2023-03-05T23:15:38.226Z,26.83
2023-03-05T23:18:06.328Z,29.48
2023-03-05T23:20:34.595Z,28.67
2023-03-05T23:23:01.404Z,26.55
2023-03-05T23:25:30.242Z,30.40
2023-03-05T23:27:58.080Z,27.25
2023-03-05T23:30:25.232Z,25.15
2023-03-05T23:32:59.231Z,26.17
2023-03-05T23:35:30.179Z,27.77
2023-03-05T23:37:57.378Z,27.52
2023-03-05T23:40:34.038Z,25.73
2023-03-05T23:43:00.687Z,26.95
2023-03-05T23:45:27.771Z,27.02
2023-03-05T23:47:54.181Z,27.08
2023-03-05T23:50:22.383Z,27.83
2023-03-05T23:52:49.656Z,25.00
2023-03-05T23:55:20.596Z,25.30
2023-03-05T23:57:47.222Z,26.48
